sensor_id;sensor_type;location;lat;lon;timestamp;temperature;humidity
25949;DHT22;13961;51.178;4.448;2023-12-20T00:01:22;7.20;99.90
25949;DHT22;13961;51.178;4.448;2023-12-20T00:03:47;7.20;99.90
25949;DHT22;13961;51.178;4.448;2023-12-20T00:06:13;7.30;99.90
25949;DHT22;13961;51.178;4.448;2023-12-20T00:08:39;7.30;99.90
25949;DHT22;13961;51.178;4.448;2023-12-20T00:11:04;7.40;99.90
25949;DHT22;13961;51.178;4.448;2023-12-20T00:13:30;7.30;99.90
25949;DHT22;13961;51.178;4.448;2023-12-20T00:15:56;7.30;99.90
25949;DHT22;13961;51.178;4.448;2023-12-20T00:18:21;7.20;99.90
25949;DHT22;13961;51.178;4.448;2023-12-20T00:20:47;7.20;99.90
25949;DHT22;13961;51.178;4.448;2023-12-20T00:23:12;7.20;99.90
25949;DHT22;13961;51.178;4.448;2023-12-20T00:25:38;7.20;99.90
25949;DHT22;13961;51.178;4.448;2023-12-20T00:28:04;7.20;99.90
25949;DHT22;13961;51.178;4.448;2023-12-20T00:30:29;7.20;99.90
25949;DHT22;13961;51.178;4.448;2023-12-20T00:32:56;7.10;99.90
25949;DHT22;13961;51.178;4.448;2023-12-20T00:35:21;7.10;99.90
25949;DHT22;13961;51.178;4.448;2023-12-20T00:37:47;7.10;99.90
25949;DHT22;13961;51.178;4.448;2023-12-20T00:40:12;7.00;99.90
25949;DHT22;13961;51.178;4.448;2023-12-20T00:42:38;7.00;99.90
25949;DHT22;13961;51.178;4.448;2023-12-20T00:45:05;7.00;99.90
25949;DHT22;13961;51.178;4.448;2023-12-20T00:47:31;7.00;99.90
25949;DHT22;13961;51.178;4.448;2023-12-20T00:49:57;7.00;99.90
25949;DHT22;13961;51.178;4.448;2023-12-20T00:52:23;6.90;99.90
25949;DHT22;13961;51.178;4.448;2023-12-20T00:54:49;7.00;99.90
25949;DHT22;13961;51.178;4.448;2023-12-20T00:57:15;7.00;99.90
25949;DHT22;13961;51.178;4.448;2023-12-20T00:59:40;7.00;99.90
25949;DHT22;13961;51.178;4.448;2023-12-20T01:02:06;7.00;99.90
25949;DHT22;13961;51.178;4.448;2023-12-20T01:04:32;7.10;99.90
25949;DHT22;13961;51.178;4.448;2023-12-20T01:06:58;7.10;99.90
25949;DHT22;13961;51.178;4.448;2023-12-20T01:09:23;7.10;99.90
25949;DHT22;13961;51.178;4.448;2023-12-20T01:11:52;7.10;99.90
25949;DHT22;13961;51.178;4.448;2023-12-20T01:14:17;7.00;99.90
25949;DHT22;13961;51.178;4.448;2023-12-20T01:16:43;7.00;99.90
25949;DHT22;13961;51.178;4.448;2023-12-20T01:19:09;7.10;99.90
25949;DHT22;13961;51.178;4.448;2023-12-20T01:21:34;7.20;99.90
25949;DHT22;13961;51.178;4.448;2023-12-20T01:24:00;7.10;99.90
25949;DHT22;13961;51.178;4.448;2023-12-20T01:26:25;7.00;99.90
25949;DHT22;13961;51.178;4.448;2023-12-20T01:28:51;7.00;99.90
25949;DHT22;13961;51.178;4.448;2023-12-20T01:31:17;7.10;99.90
25949;DHT22;13961;51.178;4.448;2023-12-20T01:33:42;7.10;99.90
25949;DHT22;13961;51.178;4.448;2023-12-20T01:36:08;7.10;99.90
25949;DHT22;13961;51.178;4.448;2023-12-20T01:38:34;7.10;99.90
25949;DHT22;13961;51.178;4.448;2023-12-20T01:41:00;7.10;99.90
25949;DHT22;13961;51.178;4.448;2023-12-20T01:43:25;7.20;99.90
25949;DHT22;13961;51.178;4.448;2023-12-20T01:45:51;7.20;99.90
25949;DHT22;13961;51.178;4.448;2023-12-20T01:48:18;7.00;99.90
25949;DHT22;13961;51.178;4.448;2023-12-20T01:50:45;7.00;99.90
25949;DHT22;13961;51.178;4.448;2023-12-20T01:53:12;7.00;99.90
25949;DHT22;13961;51.178;4.448;2023-12-20T01:55:40;6.90;99.90
25949;DHT22;13961;51.178;4.448;2023-12-20T01:58:09;7.00;99.90
25949;DHT22;13961;51.178;4.448;2023-12-20T02:00:36;7.10;99.90
25949;DHT22;13961;51.178;4.448;2023-12-20T02:03:03;7.20;99.90
25949;DHT22;13961;51.178;4.448;2023-12-20T02:05:33;7.20;99.90
25949;DHT22;13961;51.178;4.448;2023-12-20T02:07:59;7.30;99.90
25949;DHT22;13961;51.178;4.448;2023-12-20T02:10:25;7.30;99.90
25949;DHT22;13961;51.178;4.448;2023-12-20T02:12:51;7.30;99.90
25949;DHT22;13961;51.178;4.448;2023-12-20T02:15:17;7.40;99.90
25949;DHT22;13961;51.178;4.448;2023-12-20T02:17:44;7.40;99.90
25949;DHT22;13961;51.178;4.448;2023-12-20T02:20:10;7.30;99.90
25949;DHT22;13961;51.178;4.448;2023-12-20T02:22:35;7.20;99.90
25949;DHT22;13961;51.178;4.448;2023-12-20T02:25:01;7.20;99.90
25949;DHT22;13961;51.178;4.448;2023-12-20T02:27:27;7.30;99.90
25949;DHT22;13961;51.178;4.448;2023-12-20T02:29:54;7.20;99.90
25949;DHT22;13961;51.178;4.448;2023-12-20T02:32:21;7.20;99.90
25949;DHT22;13961;51.178;4.448;2023-12-20T02:34:48;7.10;99.90
25949;DHT22;13961;51.178;4.448;2023-12-20T02:37:14;7.10;99.90
25949;DHT22;13961;51.178;4.448;2023-12-20T02:39:40;7.20;99.90
25949;DHT22;13961;51.178;4.448;2023-12-20T02:42:06;7.20;99.90
25949;DHT22;13961;51.178;4.448;2023-12-20T02:44:31;7.20;99.90
25949;DHT22;13961;51.178;4.448;2023-12-20T02:46:57;7.10;99.90
25949;DHT22;13961;51.178;4.448;2023-12-20T02:49:23;7.00;99.90
25949;DHT22;13961;51.178;4.448;2023-12-20T02:51:48;7.00;99.90
25949;DHT22;13961;51.178;4.448;2023-12-20T02:54:14;7.10;99.90
25949;DHT22;13961;51.178;4.448;2023-12-20T02:56:40;7.30;99.90
25949;DHT22;13961;51.178;4.448;2023-12-20T02:59:06;7.30;99.90
25949;DHT22;13961;51.178;4.448;2023-12-20T03:01:34;7.50;99.90
25949;DHT22;13961;51.178;4.448;2023-12-20T03:04:00;7.20;99.90
25949;DHT22;13961;51.178;4.448;2023-12-20T03:06:26;7.20;99.90
25949;DHT22;13961;51.178;4.448;2023-12-20T03:08:52;7.20;99.90
25949;DHT22;13961;51.178;4.448;2023-12-20T03:11:17;7.20;99.90
25949;DHT22;13961;51.178;4.448;2023-12-20T03:13:43;7.20;99.90
25949;DHT22;13961;51.178;4.448;2023-12-20T03:16:10;7.20;99.90
25949;DHT22;13961;51.178;4.448;2023-12-20T03:18:36;7.20;99.90
25949;DHT22;13961;51.178;4.448;2023-12-20T03:21:02;7.30;99.90
25949;DHT22;13961;51.178;4.448;2023-12-20T03:23:29;7.20;99.90
25949;DHT22;13961;51.178;4.448;2023-12-20T03:25:56;7.20;99.90
25949;DHT22;13961;51.178;4.448;2023-12-20T03:28:22;7.30;99.90
25949;DHT22;13961;51.178;4.448;2023-12-20T03:30:48;7.30;99.90
25949;DHT22;13961;51.178;4.448;2023-12-20T03:33:14;7.20;99.90
25949;DHT22;13961;51.178;4.448;2023-12-20T03:35:40;7.20;99.90
25949;DHT22;13961;51.178;4.448;2023-12-20T03:38:06;7.20;99.90
25949;DHT22;13961;51.178;4.448;2023-12-20T03:40:32;7.10;99.90
25949;DHT22;13961;51.178;4.448;2023-12-20T03:42:58;7.10;99.90
25949;DHT22;13961;51.178;4.448;2023-12-20T03:45:24;6.90;99.90
25949;DHT22;13961;51.178;4.448;2023-12-20T03:47:49;6.90;99.90
25949;DHT22;13961;51.178;4.448;2023-12-20T03:50:21;6.90;99.90
25949;DHT22;13961;51.178;4.448;2023-12-20T03:52:47;7.00;99.90
25949;DHT22;13961;51.178;4.448;2023-12-20T03:55:13;7.10;99.90
25949;DHT22;13961;51.178;4.448;2023-12-20T03:57:39;7.00;99.90
25949;DHT22;13961;51.178;4.448;2023-12-20T04:00:06;7.10;99.90
25949;DHT22;13961;51.178;4.448;2023-12-20T04:02:36;7.10;99.90
25949;DHT22;13961;51.178;4.448;2023-12-20T04:05:02;7.00;99.90
25949;DHT22;13961;51.178;4.448;2023-12-20T04:07:28;7.10;99.90
25949;DHT22;13961;51.178;4.448;2023-12-20T04:09:53;7.20;99.90
25949;DHT22;13961;51.178;4.448;2023-12-20T04:12:19;7.10;99.90
25949;DHT22;13961;51.178;4.448;2023-12-20T04:14:44;6.90;99.90
25949;DHT22;13961;51.178;4.448;2023-12-20T04:17:10;6.90;99.90
25949;DHT22;13961;51.178;4.448;2023-12-20T04:19:36;6.90;99.90
25949;DHT22;13961;51.178;4.448;2023-12-20T04:22:01;6.90;99.90
25949;DHT22;13961;51.178;4.448;2023-12-20T04:24:27;6.90;99.90
25949;DHT22;13961;51.178;4.448;2023-12-20T04:26:53;6.90;99.90
25949;DHT22;13961;51.178;4.448;2023-12-20T04:29:19;6.90;99.90
25949;DHT22;13961;51.178;4.448;2023-12-20T04:31:44;7.00;99.90
25949;DHT22;13961;51.178;4.448;2023-12-20T04:34:10;7.00;99.90
25949;DHT22;13961;51.178;4.448;2023-12-20T04:36:36;6.90;99.90
25949;DHT22;13961;51.178;4.448;2023-12-20T04:39:01;6.80;99.90
25949;DHT22;13961;51.178;4.448;2023-12-20T04:41:28;6.90;99.90
25949;DHT22;13961;51.178;4.448;2023-12-20T04:43:54;6.90;99.90
25949;DHT22;13961;51.178;4.448;2023-12-20T04:46:19;6.90;99.90
25949;DHT22;13961;51.178;4.448;2023-12-20T04:48:45;6.90;99.90
25949;DHT22;13961;51.178;4.448;2023-12-20T04:51:11;7.00;99.90
25949;DHT22;13961;51.178;4.448;2023-12-20T04:53:36;7.00;99.90
25949;DHT22;13961;51.178;4.448;2023-12-20T04:56:02;7.10;99.90
25949;DHT22;13961;51.178;4.448;2023-12-20T04:58:28;7.00;99.90
25949;DHT22;13961;51.178;4.448;2023-12-20T05:00:54;7.00;99.90
25949;DHT22;13961;51.178;4.448;2023-12-20T05:03:20;6.90;99.90
25949;DHT22;13961;51.178;4.448;2023-12-20T05:05:46;6.90;99.90
25949;DHT22;13961;51.178;4.448;2023-12-20T05:08:11;6.80;99.90
25949;DHT22;13961;51.178;4.448;2023-12-20T05:10:37;6.80;99.90
25949;DHT22;13961;51.178;4.448;2023-12-20T05:13:03;6.70;99.90
25949;DHT22;13961;51.178;4.448;2023-12-20T05:15:29;6.80;99.90
25949;DHT22;13961;51.178;4.448;2023-12-20T05:17:54;7.10;99.90
25949;DHT22;13961;51.178;4.448;2023-12-20T05:20:20;7.10;99.90
25949;DHT22;13961;51.178;4.448;2023-12-20T05:22:45;7.20;99.90
25949;DHT22;13961;51.178;4.448;2023-12-20T05:25:12;7.20;99.90
25949;DHT22;13961;51.178;4.448;2023-12-20T05:27:38;7.00;99.90
25949;DHT22;13961;51.178;4.448;2023-12-20T05:30:04;7.10;99.90
25949;DHT22;13961;51.178;4.448;2023-12-20T05:32:30;7.00;99.90
25949;DHT22;13961;51.178;4.448;2023-12-20T05:34:56;6.90;99.90
25949;DHT22;13961;51.178;4.448;2023-12-20T05:37:22;7.00;99.90
25949;DHT22;13961;51.178;4.448;2023-12-20T05:39:48;7.10;99.90
25949;DHT22;13961;51.178;4.448;2023-12-20T05:42:13;7.10;99.90
25949;DHT22;13961;51.178;4.448;2023-12-20T05:44:39;7.00;99.90
25949;DHT22;13961;51.178;4.448;2023-12-20T05:47:05;7.00;99.90
25949;DHT22;13961;51.178;4.448;2023-12-20T05:49:31;7.10;99.90
25949;DHT22;13961;51.178;4.448;2023-12-20T05:51:57;7.00;99.90
25949;DHT22;13961;51.178;4.448;2023-12-20T05:54:22;7.00;99.90
25949;DHT22;13961;51.178;4.448;2023-12-20T05:56:48;7.10;99.90
25949;DHT22;13961;51.178;4.448;2023-12-20T05:59:14;7.10;99.90
25949;DHT22;13961;51.178;4.448;2023-12-20T06:01:40;7.20;99.90
25949;DHT22;13961;51.178;4.448;2023-12-20T06:04:05;7.00;99.90
25949;DHT22;13961;51.178;4.448;2023-12-20T06:06:31;7.00;99.90
25949;DHT22;13961;51.178;4.448;2023-12-20T06:08:57;7.00;99.90
25949;DHT22;13961;51.178;4.448;2023-12-20T06:11:23;7.10;99.90
25949;DHT22;13961;51.178;4.448;2023-12-20T06:13:49;7.20;99.90
25949;DHT22;13961;51.178;4.448;2023-12-20T06:16:17;7.30;99.90
25949;DHT22;13961;51.178;4.448;2023-12-20T06:18:43;7.20;99.90
25949;DHT22;13961;51.178;4.448;2023-12-20T06:21:09;7.10;99.90
25949;DHT22;13961;51.178;4.448;2023-12-20T06:23:38;7.20;99.90
25949;DHT22;13961;51.178;4.448;2023-12-20T06:26:04;7.20;99.90
25949;DHT22;13961;51.178;4.448;2023-12-20T06:28:30;7.00;99.90
25949;DHT22;13961;51.178;4.448;2023-12-20T06:30:55;7.10;99.90
25949;DHT22;13961;51.178;4.448;2023-12-20T06:33:22;7.00;99.90
25949;DHT22;13961;51.178;4.448;2023-12-20T06:35:48;7.00;99.90
25949;DHT22;13961;51.178;4.448;2023-12-20T06:38:14;7.00;99.90
25949;DHT22;13961;51.178;4.448;2023-12-20T06:40:40;7.00;99.90
25949;DHT22;13961;51.178;4.448;2023-12-20T06:43:05;7.00;99.90
25949;DHT22;13961;51.178;4.448;2023-12-20T06:45:32;7.00;99.90
25949;DHT22;13961;51.178;4.448;2023-12-20T06:47:58;6.90;99.90
25949;DHT22;13961;51.178;4.448;2023-12-20T06:50:24;6.90;99.90
25949;DHT22;13961;51.178;4.448;2023-12-20T06:52:49;6.80;99.90
25949;DHT22;13961;51.178;4.448;2023-12-20T06:55:15;6.80;99.90
25949;DHT22;13961;51.178;4.448;2023-12-20T06:57:41;6.90;99.90
25949;DHT22;13961;51.178;4.448;2023-12-20T07:00:07;6.90;99.90
25949;DHT22;13961;51.178;4.448;2023-12-20T07:02:34;6.90;99.90
25949;DHT22;13961;51.178;4.448;2023-12-20T07:04:59;7.00;99.90
25949;DHT22;13961;51.178;4.448;2023-12-20T07:07:25;7.00;99.90
25949;DHT22;13961;51.178;4.448;2023-12-20T07:09:51;7.00;99.90
25949;DHT22;13961;51.178;4.448;2023-12-20T07:12:17;6.90;99.90
25949;DHT22;13961;51.178;4.448;2023-12-20T07:14:45;6.90;99.90
25949;DHT22;13961;51.178;4.448;2023-12-20T07:17:11;6.80;99.90
25949;DHT22;13961;51.178;4.448;2023-12-20T07:19:39;6.80;99.90
25949;DHT22;13961;51.178;4.448;2023-12-20T07:22:06;6.90;99.90
25949;DHT22;13961;51.178;4.448;2023-12-20T07:24:32;6.90;99.90
25949;DHT22;13961;51.178;4.448;2023-12-20T07:26:58;6.80;99.90
25949;DHT22;13961;51.178;4.448;2023-12-20T07:29:24;6.90;99.90
25949;DHT22;13961;51.178;4.448;2023-12-20T07:31:50;6.90;99.90
25949;DHT22;13961;51.178;4.448;2023-12-20T07:34:17;6.70;99.90
25949;DHT22;13961;51.178;4.448;2023-12-20T07:36:43;6.70;99.90
25949;DHT22;13961;51.178;4.448;2023-12-20T07:39:09;6.70;99.90
25949;DHT22;13961;51.178;4.448;2023-12-20T07:41:35;6.70;99.90
25949;DHT22;13961;51.178;4.448;2023-12-20T07:44:01;6.60;99.90
25949;DHT22;13961;51.178;4.448;2023-12-20T07:46:26;6.50;99.90
25949;DHT22;13961;51.178;4.448;2023-12-20T07:48:52;6.50;99.90
25949;DHT22;13961;51.178;4.448;2023-12-20T07:51:17;6.60;99.90
25949;DHT22;13961;51.178;4.448;2023-12-20T07:53:44;6.60;99.90
25949;DHT22;13961;51.178;4.448;2023-12-20T07:56:17;6.60;99.90
25949;DHT22;13961;51.178;4.448;2023-12-20T07:58:43;6.50;99.90
25949;DHT22;13961;51.178;4.448;2023-12-20T08:01:11;6.50;99.90
25949;DHT22;13961;51.178;4.448;2023-12-20T08:03:38;6.50;99.90
25949;DHT22;13961;51.178;4.448;2023-12-20T08:06:04;6.50;99.90
25949;DHT22;13961;51.178;4.448;2023-12-20T08:08:30;6.70;99.90
25949;DHT22;13961;51.178;4.448;2023-12-20T08:10:55;6.60;99.90
25949;DHT22;13961;51.178;4.448;2023-12-20T08:13:23;6.80;99.90
25949;DHT22;13961;51.178;4.448;2023-12-20T08:15:51;6.90;99.90
25949;DHT22;13961;51.178;4.448;2023-12-20T08:18:17;7.00;99.90
25949;DHT22;13961;51.178;4.448;2023-12-20T08:20:43;6.90;99.90
25949;DHT22;13961;51.178;4.448;2023-12-20T08:23:08;6.90;99.90
25949;DHT22;13961;51.178;4.448;2023-12-20T08:25:34;6.80;99.90
25949;DHT22;13961;51.178;4.448;2023-12-20T08:28:00;6.80;99.90
25949;DHT22;13961;51.178;4.448;2023-12-20T08:30:26;6.80;99.90
25949;DHT22;13961;51.178;4.448;2023-12-20T08:32:52;6.80;99.90
25949;DHT22;13961;51.178;4.448;2023-12-20T08:35:17;6.80;99.90
25949;DHT22;13961;51.178;4.448;2023-12-20T08:37:44;6.70;99.90
25949;DHT22;13961;51.178;4.448;2023-12-20T08:40:10;6.80;99.90
25949;DHT22;13961;51.178;4.448;2023-12-20T08:42:35;6.90;99.90
25949;DHT22;13961;51.178;4.448;2023-12-20T08:45:02;6.80;99.90
25949;DHT22;13961;51.178;4.448;2023-12-20T08:47:29;6.70;99.90
25949;DHT22;13961;51.178;4.448;2023-12-20T08:49:55;6.80;99.90
25949;DHT22;13961;51.178;4.448;2023-12-20T08:52:24;6.80;99.90
25949;DHT22;13961;51.178;4.448;2023-12-20T08:54:50;6.90;99.90
25949;DHT22;13961;51.178;4.448;2023-12-20T08:57:20;6.90;99.90
25949;DHT22;13961;51.178;4.448;2023-12-20T08:59:47;6.90;99.90
25949;DHT22;13961;51.178;4.448;2023-12-20T09:02:14;7.10;99.90
25949;DHT22;13961;51.178;4.448;2023-12-20T09:04:39;7.10;99.90
25949;DHT22;13961;51.178;4.448;2023-12-20T09:07:05;7.20;99.90
25949;DHT22;13961;51.178;4.448;2023-12-20T09:09:31;7.30;99.90
25949;DHT22;13961;51.178;4.448;2023-12-20T09:11:57;7.30;99.90
25949;DHT22;13961;51.178;4.448;2023-12-20T09:14:23;7.30;99.90
25949;DHT22;13961;51.178;4.448;2023-12-20T09:16:49;7.30;99.90
25949;DHT22;13961;51.178;4.448;2023-12-20T09:19:17;7.30;99.90
25949;DHT22;13961;51.178;4.448;2023-12-20T09:21:42;7.40;99.90
25949;DHT22;13961;51.178;4.448;2023-12-20T09:24:08;7.50;99.90
25949;DHT22;13961;51.178;4.448;2023-12-20T09:26:34;7.60;99.90
25949;DHT22;13961;51.178;4.448;2023-12-20T09:29:00;7.40;99.90
25949;DHT22;13961;51.178;4.448;2023-12-20T09:31:25;7.60;99.90
25949;DHT22;13961;51.178;4.448;2023-12-20T09:33:51;7.70;99.90
25949;DHT22;13961;51.178;4.448;2023-12-20T09:36:17;7.70;99.90
25949;DHT22;13961;51.178;4.448;2023-12-20T09:38:42;7.80;99.90
25949;DHT22;13961;51.178;4.448;2023-12-20T09:41:08;7.80;99.90
25949;DHT22;13961;51.178;4.448;2023-12-20T09:43:37;7.70;99.90
25949;DHT22;13961;51.178;4.448;2023-12-20T09:46:05;7.90;99.90
25949;DHT22;13961;51.178;4.448;2023-12-20T09:48:33;8.00;99.90
25949;DHT22;13961;51.178;4.448;2023-12-20T09:50:59;8.00;99.90
25949;DHT22;13961;51.178;4.448;2023-12-20T09:53:25;8.10;99.90
25949;DHT22;13961;51.178;4.448;2023-12-20T09:55:58;8.30;99.90
25949;DHT22;13961;51.178;4.448;2023-12-20T09:58:25;8.60;99.90
25949;DHT22;13961;51.178;4.448;2023-12-20T10:00:53;8.50;99.90
25949;DHT22;13961;51.178;4.448;2023-12-20T10:03:24;8.30;99.90
25949;DHT22;13961;51.178;4.448;2023-12-20T10:05:54;8.40;99.90
25949;DHT22;13961;51.178;4.448;2023-12-20T10:08:22;8.50;99.90
25949;DHT22;13961;51.178;4.448;2023-12-20T10:10:48;8.40;99.90
25949;DHT22;13961;51.178;4.448;2023-12-20T10:13:15;8.50;99.90
25949;DHT22;13961;51.178;4.448;2023-12-20T10:15:41;8.50;99.90
25949;DHT22;13961;51.178;4.448;2023-12-20T10:18:07;8.70;99.90
25949;DHT22;13961;51.178;4.448;2023-12-20T10:20:33;8.60;99.90
25949;DHT22;13961;51.178;4.448;2023-12-20T10:22:59;8.70;99.90
25949;DHT22;13961;51.178;4.448;2023-12-20T10:25:25;8.70;99.90
25949;DHT22;13961;51.178;4.448;2023-12-20T10:28:08;8.60;99.90
25949;DHT22;13961;51.178;4.448;2023-12-20T10:30:34;8.50;99.90
25949;DHT22;13961;51.178;4.448;2023-12-20T10:33:00;8.30;99.90
25949;DHT22;13961;51.178;4.448;2023-12-20T10:35:25;8.50;99.90
25949;DHT22;13961;51.178;4.448;2023-12-20T10:37:55;8.50;99.90
25949;DHT22;13961;51.178;4.448;2023-12-20T10:40:22;8.60;99.90
25949;DHT22;13961;51.178;4.448;2023-12-20T10:42:49;8.70;99.90
25949;DHT22;13961;51.178;4.448;2023-12-20T10:45:16;8.60;99.90
25949;DHT22;13961;51.178;4.448;2023-12-20T10:47:46;8.50;99.90
25949;DHT22;13961;51.178;4.448;2023-12-20T10:50:12;8.40;99.90
25949;DHT22;13961;51.178;4.448;2023-12-20T10:52:38;8.40;99.90
25949;DHT22;13961;51.178;4.448;2023-12-20T10:55:05;8.50;99.90
25949;DHT22;13961;51.178;4.448;2023-12-20T10:57:32;8.50;99.90
25949;DHT22;13961;51.178;4.448;2023-12-20T11:00:01;8.50;99.90
25949;DHT22;13961;51.178;4.448;2023-12-20T11:02:39;8.50;99.90
25949;DHT22;13961;51.178;4.448;2023-12-20T11:08:14;8.50;99.90
25949;DHT22;13961;51.178;4.448;2023-12-20T11:11:15;8.60;99.90
25949;DHT22;13961;51.178;4.448;2023-12-20T11:13:47;8.50;99.90
25949;DHT22;13961;51.178;4.448;2023-12-20T11:16:14;8.50;99.90
25949;DHT22;13961;51.178;4.448;2023-12-20T11:18:40;8.60;99.90
25949;DHT22;13961;51.178;4.448;2023-12-20T11:21:06;8.60;99.90
25949;DHT22;13961;51.178;4.448;2023-12-20T11:23:32;8.50;99.90
25949;DHT22;13961;51.178;4.448;2023-12-20T11:26:02;8.40;99.90
25949;DHT22;13961;51.178;4.448;2023-12-20T11:28:28;8.40;99.90
25949;DHT22;13961;51.178;4.448;2023-12-20T11:31:00;8.40;99.90
25949;DHT22;13961;51.178;4.448;2023-12-20T11:33:29;8.40;99.90
25949;DHT22;13961;51.178;4.448;2023-12-20T11:35:56;8.30;99.90
25949;DHT22;13961;51.178;4.448;2023-12-20T11:38:23;8.20;99.90
25949;DHT22;13961;51.178;4.448;2023-12-20T11:40:49;8.20;99.90
25949;DHT22;13961;51.178;4.448;2023-12-20T11:46:05;8.30;99.90
25949;DHT22;13961;51.178;4.448;2023-12-20T11:48:32;8.30;99.90
25949;DHT22;13961;51.178;4.448;2023-12-20T11:50:58;8.30;99.90
25949;DHT22;13961;51.178;4.448;2023-12-20T11:53:24;8.40;99.90
25949;DHT22;13961;51.178;4.448;2023-12-20T11:55:50;8.40;99.90
25949;DHT22;13961;51.178;4.448;2023-12-20T11:58:16;8.40;99.90
25949;DHT22;13961;51.178;4.448;2023-12-20T12:00:43;8.50;99.90
25949;DHT22;13961;51.178;4.448;2023-12-20T12:03:09;8.50;99.90
25949;DHT22;13961;51.178;4.448;2023-12-20T12:05:35;8.40;99.90
25949;DHT22;13961;51.178;4.448;2023-12-20T12:08:02;8.50;99.90
25949;DHT22;13961;51.178;4.448;2023-12-20T12:10:28;8.50;99.90
25949;DHT22;13961;51.178;4.448;2023-12-20T12:12:54;8.60;99.90
25949;DHT22;13961;51.178;4.448;2023-12-20T12:15:20;8.80;99.90
25949;DHT22;13961;51.178;4.448;2023-12-20T12:17:56;8.80;99.90
25949;DHT22;13961;51.178;4.448;2023-12-20T12:20:23;8.80;99.90
25949;DHT22;13961;51.178;4.448;2023-12-20T12:25:29;9.00;99.90
25949;DHT22;13961;51.178;4.448;2023-12-20T12:27:56;8.80;99.90
25949;DHT22;13961;51.178;4.448;2023-12-20T12:30:22;8.90;99.90
25949;DHT22;13961;51.178;4.448;2023-12-20T12:32:48;8.80;99.90
25949;DHT22;13961;51.178;4.448;2023-12-20T12:35:14;9.00;99.90
25949;DHT22;13961;51.178;4.448;2023-12-20T12:37:41;9.00;99.90
25949;DHT22;13961;51.178;4.448;2023-12-20T12:40:10;9.00;99.90
25949;DHT22;13961;51.178;4.448;2023-12-20T12:42:37;9.00;99.90
25949;DHT22;13961;51.178;4.448;2023-12-20T12:45:03;8.90;99.90
25949;DHT22;13961;51.178;4.448;2023-12-20T12:47:28;8.90;99.90
25949;DHT22;13961;51.178;4.448;2023-12-20T12:49:54;8.90;99.90
25949;DHT22;13961;51.178;4.448;2023-12-20T12:52:20;9.00;99.90
25949;DHT22;13961;51.178;4.448;2023-12-20T12:54:45;9.00;99.90
25949;DHT22;13961;51.178;4.448;2023-12-20T12:57:13;9.00;99.90
25949;DHT22;13961;51.178;4.448;2023-12-20T12:59:39;9.00;99.90
25949;DHT22;13961;51.178;4.448;2023-12-20T13:02:05;9.00;99.90
25949;DHT22;13961;51.178;4.448;2023-12-20T13:04:30;9.20;99.90
25949;DHT22;13961;51.178;4.448;2023-12-20T13:06:56;9.20;99.90
25949;DHT22;13961;51.178;4.448;2023-12-20T13:09:23;9.20;99.90
25949;DHT22;13961;51.178;4.448;2023-12-20T13:11:48;9.30;99.90
25949;DHT22;13961;51.178;4.448;2023-12-20T13:14:14;9.40;99.90
25949;DHT22;13961;51.178;4.448;2023-12-20T13:16:41;9.60;99.90
25949;DHT22;13961;51.178;4.448;2023-12-20T13:19:07;9.40;99.90
25949;DHT22;13961;51.178;4.448;2023-12-20T13:21:32;9.50;99.90
25949;DHT22;13961;51.178;4.448;2023-12-20T13:23:58;9.50;99.90
25949;DHT22;13961;51.178;4.448;2023-12-20T13:26:24;9.50;99.90
25949;DHT22;13961;51.178;4.448;2023-12-20T13:28:50;9.40;99.90
25949;DHT22;13961;51.178;4.448;2023-12-20T13:31:15;9.40;99.90
25949;DHT22;13961;51.178;4.448;2023-12-20T13:33:41;9.30;99.90
25949;DHT22;13961;51.178;4.448;2023-12-20T13:36:07;9.40;99.90
25949;DHT22;13961;51.178;4.448;2023-12-20T13:38:33;9.40;99.90
25949;DHT22;13961;51.178;4.448;2023-12-20T13:40:58;9.50;99.90
25949;DHT22;13961;51.178;4.448;2023-12-20T13:43:24;9.40;99.90
25949;DHT22;13961;51.178;4.448;2023-12-20T13:45:50;9.60;99.90
25949;DHT22;13961;51.178;4.448;2023-12-20T13:48:16;9.80;99.90
25949;DHT22;13961;51.178;4.448;2023-12-20T13:50:42;9.80;99.90
25949;DHT22;13961;51.178;4.448;2023-12-20T13:53:07;9.80;99.90
25949;DHT22;13961;51.178;4.448;2023-12-20T13:55:33;9.70;99.90
25949;DHT22;13961;51.178;4.448;2023-12-20T13:57:59;9.80;99.90
25949;DHT22;13961;51.178;4.448;2023-12-20T14:00:25;9.70;99.90
25949;DHT22;13961;51.178;4.448;2023-12-20T14:02:50;9.40;99.90
25949;DHT22;13961;51.178;4.448;2023-12-20T14:05:16;9.40;99.90
25949;DHT22;13961;51.178;4.448;2023-12-20T14:07:46;9.50;99.90
25949;DHT22;13961;51.178;4.448;2023-12-20T14:10:12;9.50;99.90
25949;DHT22;13961;51.178;4.448;2023-12-20T14:12:41;9.60;99.90
25949;DHT22;13961;51.178;4.448;2023-12-20T14:15:08;9.50;99.90
25949;DHT22;13961;51.178;4.448;2023-12-20T14:17:39;9.60;99.90
25949;DHT22;13961;51.178;4.448;2023-12-20T14:20:06;9.60;99.90
25949;DHT22;13961;51.178;4.448;2023-12-20T14:22:32;9.70;99.90
25949;DHT22;13961;51.178;4.448;2023-12-20T14:24:58;9.70;99.90
25949;DHT22;13961;51.178;4.448;2023-12-20T14:27:24;9.70;99.90
25949;DHT22;13961;51.178;4.448;2023-12-20T14:29:56;9.60;99.90
25949;DHT22;13961;51.178;4.448;2023-12-20T14:32:22;9.70;99.90
25949;DHT22;13961;51.178;4.448;2023-12-20T14:34:47;9.80;99.90
25949;DHT22;13961;51.178;4.448;2023-12-20T14:37:13;9.70;99.90
25949;DHT22;13961;51.178;4.448;2023-12-20T14:39:41;9.60;99.90
25949;DHT22;13961;51.178;4.448;2023-12-20T14:42:10;9.70;99.90
25949;DHT22;13961;51.178;4.448;2023-12-20T14:44:42;9.60;99.90
25949;DHT22;13961;51.178;4.448;2023-12-20T14:47:08;9.70;99.90
25949;DHT22;13961;51.178;4.448;2023-12-20T14:49:34;9.70;99.90
25949;DHT22;13961;51.178;4.448;2023-12-20T14:52:01;9.80;99.90
25949;DHT22;13961;51.178;4.448;2023-12-20T14:54:27;9.70;99.90
25949;DHT22;13961;51.178;4.448;2023-12-20T14:56:52;9.80;99.90
25949;DHT22;13961;51.178;4.448;2023-12-20T14:59:19;9.90;99.90
25949;DHT22;13961;51.178;4.448;2023-12-20T15:01:44;10.00;99.90
25949;DHT22;13961;51.178;4.448;2023-12-20T15:04:10;10.00;99.90
25949;DHT22;13961;51.178;4.448;2023-12-20T15:06:36;9.90;99.90
25949;DHT22;13961;51.178;4.448;2023-12-20T15:09:02;9.90;99.90
25949;DHT22;13961;51.178;4.448;2023-12-20T15:11:30;9.90;99.90
25949;DHT22;13961;51.178;4.448;2023-12-20T15:13:56;9.80;99.90
25949;DHT22;13961;51.178;4.448;2023-12-20T15:16:24;9.70;99.90
25949;DHT22;13961;51.178;4.448;2023-12-20T15:18:51;9.70;99.90
25949;DHT22;13961;51.178;4.448;2023-12-20T15:21:17;9.70;99.90
25949;DHT22;13961;51.178;4.448;2023-12-20T15:23:43;9.80;99.90
25949;DHT22;13961;51.178;4.448;2023-12-20T15:26:33;9.80;99.90
25949;DHT22;13961;51.178;4.448;2023-12-20T15:29:00;9.70;99.90
25949;DHT22;13961;51.178;4.448;2023-12-20T15:31:29;9.80;99.90
25949;DHT22;13961;51.178;4.448;2023-12-20T15:33:55;9.80;99.90
25949;DHT22;13961;51.178;4.448;2023-12-20T15:36:20;9.80;99.90
25949;DHT22;13961;51.178;4.448;2023-12-20T15:38:46;9.70;99.90
25949;DHT22;13961;51.178;4.448;2023-12-20T15:41:19;9.70;99.90
25949;DHT22;13961;51.178;4.448;2023-12-20T15:43:45;9.60;99.90
25949;DHT22;13961;51.178;4.448;2023-12-20T15:46:10;9.50;99.90
25949;DHT22;13961;51.178;4.448;2023-12-20T15:48:36;9.50;99.90